sensor_id;sensor_type;location;lat;lon;timestamp;P1;durP1;ratioP1;P2;durP2;ratioP2
69779;SDS011;57052;55.602;38.096;2023-07-30T00:02:17;11.63;;;6.53;;
69779;SDS011;57052;55.602;38.096;2023-07-30T00:04:44;10.27;;;6.60;;
69779;SDS011;57052;55.602;38.096;2023-07-30T00:07:10;11.30;;;6.15;;
69779;SDS011;57052;55.602;38.096;2023-07-30T00:09:36;11.88;;;6.38;;
69779;SDS011;57052;55.602;38.096;2023-07-30T00:12:03;11.55;;;5.22;;
69779;SDS011;57052;55.602;38.096;2023-07-30T00:14:30;10.75;;;5.30;;
69779;SDS011;57052;55.602;38.096;2023-07-30T00:16:55;8.82;;;5.43;;
69779;SDS011;57052;55.602;38.096;2023-07-30T00:19:21;11.95;;;5.80;;
69779;SDS011;57052;55.602;38.096;2023-07-30T00:21:47;8.50;;;5.47;;
69779;SDS011;57052;55.602;38.096;2023-07-30T00:24:13;13.52;;;6.55;;
69779;SDS011;57052;55.602;38.096;2023-07-30T00:26:38;11.85;;;6.15;;
69779;SDS011;57052;55.602;38.096;2023-07-30T00:29:04;11.05;;;6.20;;
69779;SDS011;57052;55.602;38.096;2023-07-30T00:31:30;10.98;;;5.22;;
69779;SDS011;57052;55.602;38.096;2023-07-30T00:33:55;11.40;;;5.60;;
69779;SDS011;57052;55.602;38.096;2023-07-30T00:36:21;9.43;;;5.00;;
69779;SDS011;57052;55.602;38.096;2023-07-30T00:38:47;13.13;;;4.95;;
69779;SDS011;57052;55.602;38.096;2023-07-30T00:41:13;11.20;;;4.65;;
69779;SDS011;57052;55.602;38.096;2023-07-30T00:43:38;7.85;;;4.90;;
69779;SDS011;57052;55.602;38.096;2023-07-30T00:46:04;9.18;;;4.57;;
69779;SDS011;57052;55.602;38.096;2023-07-30T00:48:30;9.98;;;5.13;;
69779;SDS011;57052;55.602;38.096;2023-07-30T00:50:56;7.70;;;5.13;;
69779;SDS011;57052;55.602;38.096;2023-07-30T00:53:22;9.93;;;5.55;;
69779;SDS011;57052;55.602;38.096;2023-07-30T00:55:51;10.05;;;5.47;;
69779;SDS011;57052;55.602;38.096;2023-07-30T00:58:17;11.00;;;5.80;;
69779;SDS011;57052;55.602;38.096;2023-07-30T01:00:43;11.98;;;5.68;;
69779;SDS011;57052;55.602;38.096;2023-07-30T01:03:10;11.75;;;6.68;;
69779;SDS011;57052;55.602;38.096;2023-07-30T01:05:36;11.50;;;6.03;;
69779;SDS011;57052;55.602;38.096;2023-07-30T01:08:01;12.00;;;6.03;;
69779;SDS011;57052;55.602;38.096;2023-07-30T01:10:28;12.82;;;6.53;;
69779;SDS011;57052;55.602;38.096;2023-07-30T01:12:57;11.70;;;6.38;;
69779;SDS011;57052;55.602;38.096;2023-07-30T01:15:28;12.27;;;6.07;;
69779;SDS011;57052;55.602;38.096;2023-07-30T01:17:54;12.02;;;6.53;;
69779;SDS011;57052;55.602;38.096;2023-07-30T01:20:21;13.52;;;6.80;;
69779;SDS011;57052;55.602;38.096;2023-07-30T01:22:46;12.05;;;6.63;;
69779;SDS011;57052;55.602;38.096;2023-07-30T01:25:13;15.60;;;6.65;;
69779;SDS011;57052;55.602;38.096;2023-07-30T01:27:40;12.82;;;5.72;;
69779;SDS011;57052;55.602;38.096;2023-07-30T01:32:41;10.77;;;5.47;;
69779;SDS011;57052;55.602;38.096;2023-07-30T01:35:08;10.18;;;5.93;;
69779;SDS011;57052;55.602;38.096;2023-07-30T01:37:34;11.18;;;5.40;;
69779;SDS011;57052;55.602;38.096;2023-07-30T01:40:03;8.90;;;4.97;;
69779;SDS011;57052;55.602;38.096;2023-07-30T01:42:31;8.85;;;4.95;;
69779;SDS011;57052;55.602;38.096;2023-07-30T01:44:56;9.27;;;4.80;;
69779;SDS011;57052;55.602;38.096;2023-07-30T01:47:22;9.07;;;4.55;;
69779;SDS011;57052;55.602;38.096;2023-07-30T01:49:48;9.15;;;5.03;;
69779;SDS011;57052;55.602;38.096;2023-07-30T01:52:14;9.32;;;4.93;;
69779;SDS011;57052;55.602;38.096;2023-07-30T01:54:40;8.07;;;4.97;;
69779;SDS011;57052;55.602;38.096;2023-07-30T01:57:07;9.90;;;5.03;;
69779;SDS011;57052;55.602;38.096;2023-07-30T01:59:33;10.10;;;5.45;;
69779;SDS011;57052;55.602;38.096;2023-07-30T02:01:59;9.73;;;5.28;;
69779;SDS011;57052;55.602;38.096;2023-07-30T02:04:24;9.25;;;4.78;;
69779;SDS011;57052;55.602;38.096;2023-07-30T02:06:50;11.32;;;5.05;;
69779;SDS011;57052;55.602;38.096;2023-07-30T02:09:15;10.95;;;5.32;;
69779;SDS011;57052;55.602;38.096;2023-07-30T02:11:41;7.22;;;4.60;;
69779;SDS011;57052;55.602;38.096;2023-07-30T02:14:08;7.60;;;4.70;;
69779;SDS011;57052;55.602;38.096;2023-07-30T02:16:35;10.32;;;5.32;;
69779;SDS011;57052;55.602;38.096;2023-07-30T02:19:01;9.70;;;5.32;;
69779;SDS011;57052;55.602;38.096;2023-07-30T02:21:26;9.27;;;5.05;;
69779;SDS011;57052;55.602;38.096;2023-07-30T02:23:52;9.48;;;5.68;;
69779;SDS011;57052;55.602;38.096;2023-07-30T02:26:18;9.02;;;5.53;;
69779;SDS011;57052;55.602;38.096;2023-07-30T02:28:43;12.80;;;6.30;;
69779;SDS011;57052;55.602;38.096;2023-07-30T02:31:09;8.93;;;6.00;;
69779;SDS011;57052;55.602;38.096;2023-07-30T02:33:34;10.48;;;5.95;;
69779;SDS011;57052;55.602;38.096;2023-07-30T02:36:00;11.77;;;6.32;;
69779;SDS011;57052;55.602;38.096;2023-07-30T02:38:26;11.35;;;7.05;;
69779;SDS011;57052;55.602;38.096;2023-07-30T02:40:52;13.18;;;7.93;;
69779;SDS011;57052;55.602;38.096;2023-07-30T02:43:17;14.63;;;7.80;;
69779;SDS011;57052;55.602;38.096;2023-07-30T02:45:43;15.07;;;8.40;;
69779;SDS011;57052;55.602;38.096;2023-07-30T02:48:12;18.08;;;8.60;;
69779;SDS011;57052;55.602;38.096;2023-07-30T02:50:38;15.93;;;8.10;;
69779;SDS011;57052;55.602;38.096;2023-07-30T02:53:04;13.43;;;7.80;;
69779;SDS011;57052;55.602;38.096;2023-07-30T02:55:29;16.17;;;8.70;;
69779;SDS011;57052;55.602;38.096;2023-07-30T02:57:55;18.52;;;7.68;;
69779;SDS011;57052;55.602;38.096;2023-07-30T03:00:20;13.48;;;7.70;;
69779;SDS011;57052;55.602;38.096;2023-07-30T03:02:46;14.48;;;8.10;;
69779;SDS011;57052;55.602;38.096;2023-07-30T03:05:12;13.20;;;7.75;;
69779;SDS011;57052;55.602;38.096;2023-07-30T03:07:37;15.30;;;8.38;;
69779;SDS011;57052;55.602;38.096;2023-07-30T03:10:03;13.90;;;8.00;;
69779;SDS011;57052;55.602;38.096;2023-07-30T03:12:30;12.57;;;7.43;;
69779;SDS011;57052;55.602;38.096;2023-07-30T03:14:56;13.40;;;7.10;;
69779;SDS011;57052;55.602;38.096;2023-07-30T03:17:21;11.75;;;6.78;;
69779;SDS011;57052;55.602;38.096;2023-07-30T03:19:47;13.30;;;6.80;;
69779;SDS011;57052;55.602;38.096;2023-07-30T03:22:13;12.43;;;6.55;;
69779;SDS011;57052;55.602;38.096;2023-07-30T03:24:38;12.93;;;6.65;;
69779;SDS011;57052;55.602;38.096;2023-07-30T03:27:04;11.70;;;6.10;;
69779;SDS011;57052;55.602;38.096;2023-07-30T03:29:30;11.48;;;7.22;;
69779;SDS011;57052;55.602;38.096;2023-07-30T03:31:56;13.73;;;7.95;;
69779;SDS011;57052;55.602;38.096;2023-07-30T03:34:22;16.70;;;8.27;;
69779;SDS011;57052;55.602;38.096;2023-07-30T03:36:47;12.80;;;8.10;;
69779;SDS011;57052;55.602;38.096;2023-07-30T03:39:13;17.40;;;8.07;;
69779;SDS011;57052;55.602;38.096;2023-07-30T03:41:39;14.27;;;8.55;;
69779;SDS011;57052;55.602;38.096;2023-07-30T03:44:04;16.23;;;8.32;;
69779;SDS011;57052;55.602;38.096;2023-07-30T03:46:30;14.63;;;8.65;;
69779;SDS011;57052;55.602;38.096;2023-07-30T03:48:55;15.50;;;9.07;;
69779;SDS011;57052;55.602;38.096;2023-07-30T03:51:21;14.32;;;8.35;;
69779;SDS011;57052;55.602;38.096;2023-07-30T03:53:47;14.18;;;8.00;;
69779;SDS011;57052;55.602;38.096;2023-07-30T03:56:12;14.68;;;8.48;;
69779;SDS011;57052;55.602;38.096;2023-07-30T03:58:38;15.63;;;7.53;;
69779;SDS011;57052;55.602;38.096;2023-07-30T04:01:04;15.75;;;7.47;;
69779;SDS011;57052;55.602;38.096;2023-07-30T04:03:29;11.70;;;6.93;;
69779;SDS011;57052;55.602;38.096;2023-07-30T04:05:55;15.05;;;7.20;;
69779;SDS011;57052;55.602;38.096;2023-07-30T04:08:21;11.45;;;6.50;;
69779;SDS011;57052;55.602;38.096;2023-07-30T04:10:46;10.73;;;6.25;;
69779;SDS011;57052;55.602;38.096;2023-07-30T04:13:12;11.63;;;6.38;;
69779;SDS011;57052;55.602;38.096;2023-07-30T04:15:38;10.98;;;6.18;;
69779;SDS011;57052;55.602;38.096;2023-07-30T04:18:04;12.73;;;6.13;;
69779;SDS011;57052;55.602;38.096;2023-07-30T04:20:29;9.95;;;6.28;;
69779;SDS011;57052;55.602;38.096;2023-07-30T04:22:55;7.65;;;5.40;;
69779;SDS011;57052;55.602;38.096;2023-07-30T04:25:21;9.90;;;5.75;;
69779;SDS011;57052;55.602;38.096;2023-07-30T04:27:46;10.80;;;5.80;;
69779;SDS011;57052;55.602;38.096;2023-07-30T04:30:12;9.27;;;6.25;;
69779;SDS011;57052;55.602;38.096;2023-07-30T04:32:38;9.98;;;6.05;;
69779;SDS011;57052;55.602;38.096;2023-07-30T04:35:03;8.55;;;5.35;;
69779;SDS011;57052;55.602;38.096;2023-07-30T04:37:30;7.80;;;5.60;;
69779;SDS011;57052;55.602;38.096;2023-07-30T04:39:56;12.70;;;6.18;;
69779;SDS011;57052;55.602;38.096;2023-07-30T04:42:22;9.25;;;5.85;;
69779;SDS011;57052;55.602;38.096;2023-07-30T04:44:47;9.55;;;6.10;;
69779;SDS011;57052;55.602;38.096;2023-07-30T04:47:13;9.80;;;5.72;;
69779;SDS011;57052;55.602;38.096;2023-07-30T04:49:39;9.48;;;5.47;;
69779;SDS011;57052;55.602;38.096;2023-07-30T04:52:06;10.77;;;6.20;;
69779;SDS011;57052;55.602;38.096;2023-07-30T04:54:33;10.75;;;5.60;;
69779;SDS011;57052;55.602;38.096;2023-07-30T04:57:01;10.70;;;6.00;;
69779;SDS011;57052;55.602;38.096;2023-07-30T04:59:27;8.82;;;5.43;;
69779;SDS011;57052;55.602;38.096;2023-07-30T05:01:53;8.82;;;5.53;;
69779;SDS011;57052;55.602;38.096;2023-07-30T05:04:19;8.98;;;5.50;;
69779;SDS011;57052;55.602;38.096;2023-07-30T05:06:45;9.82;;;5.00;;
69779;SDS011;57052;55.602;38.096;2023-07-30T05:09:10;8.27;;;4.80;;
69779;SDS011;57052;55.602;38.096;2023-07-30T05:11:39;8.65;;;4.78;;
69779;SDS011;57052;55.602;38.096;2023-07-30T05:14:04;7.35;;;4.63;;
69779;SDS011;57052;55.602;38.096;2023-07-30T05:16:30;7.18;;;4.38;;
69779;SDS011;57052;55.602;38.096;2023-07-30T05:18:56;9.63;;;4.22;;
69779;SDS011;57052;55.602;38.096;2023-07-30T05:21:21;8.38;;;4.45;;
69779;SDS011;57052;55.602;38.096;2023-07-30T05:23:47;7.03;;;4.30;;
69779;SDS011;57052;55.602;38.096;2023-07-30T05:26:13;8.75;;;4.43;;
69779;SDS011;57052;55.602;38.096;2023-07-30T05:28:38;7.10;;;3.95;;
69779;SDS011;57052;55.602;38.096;2023-07-30T05:31:04;6.65;;;3.80;;
69779;SDS011;57052;55.602;38.096;2023-07-30T05:33:30;7.35;;;3.95;;
69779;SDS011;57052;55.602;38.096;2023-07-30T05:35:56;9.23;;;4.15;;
69779;SDS011;57052;55.602;38.096;2023-07-30T05:38:21;9.13;;;3.72;;
69779;SDS011;57052;55.602;38.096;2023-07-30T05:40:47;6.90;;;3.88;;
69779;SDS011;57052;55.602;38.096;2023-07-30T05:43:13;6.78;;;4.03;;
69779;SDS011;57052;55.602;38.096;2023-07-30T05:45:38;5.72;;;3.80;;
69779;SDS011;57052;55.602;38.096;2023-07-30T05:48:04;8.18;;;3.50;;
69779;SDS011;57052;55.602;38.096;2023-07-30T05:50:30;5.50;;;3.33;;
69779;SDS011;57052;55.602;38.096;2023-07-30T05:52:55;5.72;;;3.38;;
69779;SDS011;57052;55.602;38.096;2023-07-30T05:55:21;8.68;;;3.40;;
69779;SDS011;57052;55.602;38.096;2023-07-30T05:57:47;6.25;;;2.95;;
69779;SDS011;57052;55.602;38.096;2023-07-30T06:00:12;6.03;;;3.05;;
69779;SDS011;57052;55.602;38.096;2023-07-30T06:02:38;5.43;;;3.30;;
69779;SDS011;57052;55.602;38.096;2023-07-30T06:05:04;9.90;;;3.30;;
69779;SDS011;57052;55.602;38.096;2023-07-30T06:07:30;5.72;;;3.20;;
69779;SDS011;57052;55.602;38.096;2023-07-30T06:09:55;6.65;;;3.53;;
69779;SDS011;57052;55.602;38.096;2023-07-30T06:12:21;4.95;;;2.97;;
69779;SDS011;57052;55.602;38.096;2023-07-30T06:14:47;4.93;;;3.00;;
69779;SDS011;57052;55.602;38.096;2023-07-30T06:17:12;7.65;;;3.00;;
69779;SDS011;57052;55.602;38.096;2023-07-30T06:19:38;4.40;;;3.10;;
69779;SDS011;57052;55.602;38.096;2023-07-30T06:22:04;8.25;;;3.10;;
69779;SDS011;57052;55.602;38.096;2023-07-30T06:24:29;5.22;;;2.88;;
69779;SDS011;57052;55.602;38.096;2023-07-30T06:26:55;5.32;;;3.10;;
69779;SDS011;57052;55.602;38.096;2023-07-30T06:29:21;6.20;;;2.85;;
69779;SDS011;57052;55.602;38.096;2023-07-30T06:31:46;7.03;;;3.55;;
69779;SDS011;57052;55.602;38.096;2023-07-30T06:34:12;5.88;;;2.78;;
69779;SDS011;57052;55.602;38.096;2023-07-30T06:36:38;5.28;;;3.08;;
69779;SDS011;57052;55.602;38.096;2023-07-30T06:39:03;5.47;;;3.28;;
69779;SDS011;57052;55.602;38.096;2023-07-30T06:41:29;5.70;;;3.10;;
69779;SDS011;57052;55.602;38.096;2023-07-30T06:43:55;5.15;;;3.00;;
69779;SDS011;57052;55.602;38.096;2023-07-30T06:46:20;3.95;;;2.75;;
69779;SDS011;57052;55.602;38.096;2023-07-30T06:48:46;7.07;;;3.05;;
69779;SDS011;57052;55.602;38.096;2023-07-30T06:51:11;6.78;;;2.92;;
69779;SDS011;57052;55.602;38.096;2023-07-30T06:53:39;6.97;;;2.63;;
69779;SDS011;57052;55.602;38.096;2023-07-30T06:56:04;7.20;;;2.35;;
69779;SDS011;57052;55.602;38.096;2023-07-30T06:58:30;3.45;;;2.50;;
69779;SDS011;57052;55.602;38.096;2023-07-30T07:00:56;5.80;;;2.70;;
69779;SDS011;57052;55.602;38.096;2023-07-30T07:03:21;5.40;;;2.53;;
69779;SDS011;57052;55.602;38.096;2023-07-30T07:05:54;6.05;;;2.60;;
69779;SDS011;57052;55.602;38.096;2023-07-30T07:08:20;5.30;;;2.58;;
69779;SDS011;57052;55.602;38.096;2023-07-30T07:10:46;7.30;;;2.38;;
69779;SDS011;57052;55.602;38.096;2023-07-30T07:13:12;4.80;;;2.70;;
69779;SDS011;57052;55.602;38.096;2023-07-30T07:15:43;7.07;;;2.88;;
69779;SDS011;57052;55.602;38.096;2023-07-30T07:18:10;4.03;;;2.45;;
69779;SDS011;57052;55.602;38.096;2023-07-30T07:20:36;5.28;;;2.90;;
69779;SDS011;57052;55.602;38.096;2023-07-30T07:23:02;5.78;;;2.50;;
69779;SDS011;57052;55.602;38.096;2023-07-30T07:25:28;4.68;;;2.53;;
69779;SDS011;57052;55.602;38.096;2023-07-30T07:27:54;5.95;;;2.65;;
69779;SDS011;57052;55.602;38.096;2023-07-30T07:30:20;5.10;;;2.63;;
69779;SDS011;57052;55.602;38.096;2023-07-30T07:32:46;4.28;;;2.65;;
69779;SDS011;57052;55.602;38.096;2023-07-30T07:35:15;7.40;;;2.92;;
69779;SDS011;57052;55.602;38.096;2023-07-30T07:37:44;4.93;;;2.53;;
69779;SDS011;57052;55.602;38.096;2023-07-30T07:40:09;3.05;;;2.20;;
69779;SDS011;57052;55.602;38.096;2023-07-30T07:42:37;5.75;;;2.70;;
69779;SDS011;57052;55.602;38.096;2023-07-30T07:45:04;3.60;;;2.40;;
69779;SDS011;57052;55.602;38.096;2023-07-30T07:47:31;5.55;;;2.60;;
69779;SDS011;57052;55.602;38.096;2023-07-30T07:49:56;8.25;;;3.13;;
69779;SDS011;57052;55.602;38.096;2023-07-30T07:52:22;3.53;;;2.38;;
69779;SDS011;57052;55.602;38.096;2023-07-30T07:54:48;5.95;;;2.58;;
69779;SDS011;57052;55.602;38.096;2023-07-30T07:57:13;4.30;;;2.25;;
69779;SDS011;57052;55.602;38.096;2023-07-30T07:59:39;4.40;;;2.55;;
69779;SDS011;57052;55.602;38.096;2023-07-30T08:02:06;4.38;;;2.13;;
69779;SDS011;57052;55.602;38.096;2023-07-30T08:04:32;5.30;;;2.58;;
69779;SDS011;57052;55.602;38.096;2023-07-30T08:06:58;6.15;;;2.50;;
69779;SDS011;57052;55.602;38.096;2023-07-30T08:09:28;5.43;;;2.65;;
69779;SDS011;57052;55.602;38.096;2023-07-30T08:11:54;4.32;;;2.53;;
69779;SDS011;57052;55.602;38.096;2023-07-30T08:14:20;4.38;;;2.50;;
69779;SDS011;57052;55.602;38.096;2023-07-30T08:16:46;6.30;;;2.42;;
69779;SDS011;57052;55.602;38.096;2023-07-30T08:19:11;6.43;;;2.70;;
69779;SDS011;57052;55.602;38.096;2023-07-30T08:21:37;3.88;;;2.38;;
69779;SDS011;57052;55.602;38.096;2023-07-30T08:24:03;7.60;;;2.90;;
69779;SDS011;57052;55.602;38.096;2023-07-30T08:26:29;6.20;;;2.65;;
69779;SDS011;57052;55.602;38.096;2023-07-30T08:28:55;5.65;;;3.17;;
69779;SDS011;57052;55.602;38.096;2023-07-30T08:31:21;5.80;;;3.00;;
69779;SDS011;57052;55.602;38.096;2023-07-30T08:33:46;6.10;;;2.53;;
69779;SDS011;57052;55.602;38.096;2023-07-30T08:36:12;4.88;;;2.55;;
69779;SDS011;57052;55.602;38.096;2023-07-30T08:38:38;6.03;;;2.60;;
69779;SDS011;57052;55.602;38.096;2023-07-30T08:41:03;5.47;;;2.67;;
69779;SDS011;57052;55.602;38.096;2023-07-30T08:43:29;3.95;;;2.47;;
69779;SDS011;57052;55.602;38.096;2023-07-30T08:45:55;5.40;;;2.78;;
69779;SDS011;57052;55.602;38.096;2023-07-30T08:48:21;5.95;;;2.30;;
69779;SDS011;57052;55.602;38.096;2023-07-30T08:50:47;5.65;;;2.60;;
69779;SDS011;57052;55.602;38.096;2023-07-30T08:53:15;4.07;;;2.38;;
69779;SDS011;57052;55.602;38.096;2023-07-30T08:55:40;5.18;;;2.33;;
69779;SDS011;57052;55.602;38.096;2023-07-30T08:58:07;4.70;;;2.53;;
69779;SDS011;57052;55.602;38.096;2023-07-30T09:00:36;4.53;;;2.40;;
69779;SDS011;57052;55.602;38.096;2023-07-30T09:03:04;4.65;;;2.28;;
69779;SDS011;57052;55.602;38.096;2023-07-30T09:05:30;5.95;;;2.42;;
69779;SDS011;57052;55.602;38.096;2023-07-30T09:07:57;3.17;;;2.15;;
69779;SDS011;57052;55.602;38.096;2023-07-30T09:10:23;5.57;;;1.70;;
69779;SDS011;57052;55.602;38.096;2023-07-30T09:12:54;5.28;;;2.33;;
69779;SDS011;57052;55.602;38.096;2023-07-30T09:15:42;5.75;;;2.20;;
69779;SDS011;57052;55.602;38.096;2023-07-30T09:18:07;3.03;;;1.95;;
69779;SDS011;57052;55.602;38.096;2023-07-30T09:20:40;4.47;;;2.50;;
69779;SDS011;57052;55.602;38.096;2023-07-30T09:23:07;3.78;;;2.17;;
69779;SDS011;57052;55.602;38.096;2023-07-30T09:25:34;4.18;;;2.28;;
69779;SDS011;57052;55.602;38.096;2023-07-30T09:28:00;3.35;;;1.92;;
69779;SDS011;57052;55.602;38.096;2023-07-30T09:30:26;3.85;;;2.00;;
69779;SDS011;57052;55.602;38.096;2023-07-30T09:32:54;4.15;;;2.15;;
69779;SDS011;57052;55.602;38.096;2023-07-30T09:35:22;3.08;;;2.10;;
69779;SDS011;57052;55.602;38.096;2023-07-30T09:37:50;4.28;;;2.00;;
69779;SDS011;57052;55.602;38.096;2023-07-30T09:40:30;4.32;;;2.05;;
69779;SDS011;57052;55.602;38.096;2023-07-30T09:42:57;4.93;;;2.00;;
69779;SDS011;57052;55.602;38.096;2023-07-30T09:45:24;6.07;;;2.20;;
69779;SDS011;57052;55.602;38.096;2023-07-30T09:47:51;3.42;;;1.80;;
69779;SDS011;57052;55.602;38.096;2023-07-30T09:50:19;3.60;;;1.95;;
69779;SDS011;57052;55.602;38.096;2023-07-30T09:52:44;3.67;;;2.10;;
69779;SDS011;57052;55.602;38.096;2023-07-30T09:55:11;5.00;;;1.80;;
69779;SDS011;57052;55.602;38.096;2023-07-30T09:57:37;3.03;;;1.90;;
69779;SDS011;57052;55.602;38.096;2023-07-30T10:00:04;4.28;;;1.90;;
69779;SDS011;57052;55.602;38.096;2023-07-30T10:02:34;3.90;;;1.95;;
69779;SDS011;57052;55.602;38.096;2023-07-30T10:05:04;3.65;;;1.90;;
69779;SDS011;57052;55.602;38.096;2023-07-30T10:07:44;5.28;;;1.95;;
69779;SDS011;57052;55.602;38.096;2023-07-30T10:10:16;3.38;;;1.80;;
69779;SDS011;57052;55.602;38.096;2023-07-30T10:12:45;4.80;;;1.88;;
69779;SDS011;57052;55.602;38.096;2023-07-30T10:15:12;4.80;;;2.10;;
69779;SDS011;57052;55.602;38.096;2023-07-30T10:17:38;3.42;;;1.73;;
69779;SDS011;57052;55.602;38.096;2023-07-30T10:20:20;3.70;;;2.13;;
69779;SDS011;57052;55.602;38.096;2023-07-30T10:22:50;6.15;;;1.95;;
69779;SDS011;57052;55.602;38.096;2023-07-30T10:25:41;4.07;;;1.90;;
69779;SDS011;57052;55.602;38.096;2023-07-30T10:30:58;4.60;;;1.83;;
69779;SDS011;57052;55.602;38.096;2023-07-30T10:33:50;4.80;;;1.83;;
69779;SDS011;57052;55.602;38.096;2023-07-30T10:36:32;3.58;;;2.22;;
69779;SDS011;57052;55.602;38.096;2023-07-30T10:41:39;3.75;;;2.15;;
69779;SDS011;57052;55.602;38.096;2023-07-30T10:44:05;3.25;;;1.90;;
69779;SDS011;57052;55.602;38.096;2023-07-30T10:46:31;3.90;;;1.90;;
69779;SDS011;57052;55.602;38.096;2023-07-30T10:48:57;3.03;;;2.03;;
69779;SDS011;57052;55.602;38.096;2023-07-30T10:51:23;3.90;;;1.92;;
69779;SDS011;57052;55.602;38.096;2023-07-30T10:53:49;3.40;;;2.15;;
69779;SDS011;57052;55.602;38.096;2023-07-30T10:56:16;3.55;;;2.05;;
69779;SDS011;57052;55.602;38.096;2023-07-30T10:58:48;2.75;;;1.80;;
69779;SDS011;57052;55.602;38.096;2023-07-30T11:01:16;4.68;;;1.90;;
69779;SDS011;57052;55.602;38.096;2023-07-30T11:03:41;3.75;;;1.90;;
69779;SDS011;57052;55.602;38.096;2023-07-30T11:06:07;3.92;;;2.28;;
69779;SDS011;57052;55.602;38.096;2023-07-30T11:13:35;2.90;;;1.75;;
69779;SDS011;57052;55.602;38.096;2023-07-30T11:16:02;6.40;;;1.80;;
69779;SDS011;57052;55.602;38.096;2023-07-30T11:18:30;2.17;;;1.60;;
69779;SDS011;57052;55.602;38.096;2023-07-30T11:23:36;3.15;;;1.75;;
69779;SDS011;57052;55.602;38.096;2023-07-30T11:26:03;4.60;;;1.83;;
69779;SDS011;57052;55.602;38.096;2023-07-30T11:30:58;7.03;;;1.83;;
69779;SDS011;57052;55.602;38.096;2023-07-30T11:33:26;2.95;;;1.80;;
69779;SDS011;57052;55.602;38.096;2023-07-30T11:35:53;2.38;;;1.77;;
69779;SDS011;57052;55.602;38.096;2023-07-30T11:38:21;5.00;;;1.80;;
69779;SDS011;57052;55.602;38.096;2023-07-30T11:40:48;3.13;;;2.08;;
69779;SDS011;57052;55.602;38.096;2023-07-30T11:43:14;2.88;;;1.88;;
69779;SDS011;57052;55.602;38.096;2023-07-30T11:45:40;5.35;;;1.80;;
69779;SDS011;57052;55.602;38.096;2023-07-30T11:48:06;3.30;;;1.70;;
69779;SDS011;57052;55.602;38.096;2023-07-30T11:56:24;2.70;;;1.55;;
69779;SDS011;57052;55.602;38.096;2023-07-30T11:58:53;4.72;;;1.85;;
69779;SDS011;57052;55.602;38.096;2023-07-30T12:01:24;2.85;;;1.60;;
69779;SDS011;57052;55.602;38.096;2023-07-30T12:03:50;2.90;;;1.50;;
69779;SDS011;57052;55.602;38.096;2023-07-30T12:06:19;2.47;;;1.65;;
69779;SDS011;57052;55.602;38.096;2023-07-30T12:08:47;3.30;;;1.50;;
69779;SDS011;57052;55.602;38.096;2023-07-30T12:11:14;4.28;;;1.73;;
69779;SDS011;57052;55.602;38.096;2023-07-30T12:13:43;2.63;;;1.42;;
69779;SDS011;57052;55.602;38.096;2023-07-30T12:16:13;3.00;;;1.60;;
69779;SDS011;57052;55.602;38.096;2023-07-30T12:18:39;3.92;;;1.77;;
69779;SDS011;57052;55.602;38.096;2023-07-30T12:21:06;3.05;;;1.90;;
69779;SDS011;57052;55.602;38.096;2023-07-30T12:23:37;2.55;;;1.45;;
69779;SDS011;57052;55.602;38.096;2023-07-30T12:26:03;2.70;;;1.48;;
69779;SDS011;57052;55.602;38.096;2023-07-30T12:28:35;2.03;;;1.40;;
69779;SDS011;57052;55.602;38.096;2023-07-30T12:31:00;3.17;;;1.48;;
69779;SDS011;57052;55.602;38.096;2023-07-30T12:33:26;3.20;;;1.50;;
69779;SDS011;57052;55.602;38.096;2023-07-30T12:35:52;2.75;;;1.70;;
69779;SDS011;57052;55.602;38.096;2023-07-30T12:38:18;2.97;;;1.60;;
69779;SDS011;57052;55.602;38.096;2023-07-30T12:40:44;2.30;;;1.50;;
69779;SDS011;57052;55.602;38.096;2023-07-30T12:43:10;2.83;;;1.42;;
69779;SDS011;57052;55.602;38.096;2023-07-30T12:45:35;3.72;;;1.55;;
69779;SDS011;57052;55.602;38.096;2023-07-30T12:48:01;4.40;;;1.60;;
69779;SDS011;57052;55.602;38.096;2023-07-30T12:50:27;3.53;;;1.60;;
69779;SDS011;57052;55.602;38.096;2023-07-30T12:52:53;2.45;;;1.73;;
69779;SDS011;57052;55.602;38.096;2023-07-30T12:55:19;6.38;;;2.05;;
69779;SDS011;57052;55.602;38.096;2023-07-30T12:57:46;3.08;;;1.75;;
69779;SDS011;57052;55.602;38.096;2023-07-30T13:00:12;4.20;;;2.05;;
69779;SDS011;57052;55.602;38.096;2023-07-30T13:02:37;2.65;;;1.63;;
69779;SDS011;57052;55.602;38.096;2023-07-30T13:05:03;3.88;;;1.73;;
69779;SDS011;57052;55.602;38.096;2023-07-30T13:07:30;3.78;;;1.70;;
69779;SDS011;57052;55.602;38.096;2023-07-30T13:10:05;2.53;;;1.60;;
69779;SDS011;57052;55.602;38.096;2023-07-30T13:12:32;3.53;;;1.60;;
69779;SDS011;57052;55.602;38.096;2023-07-30T13:14:59;2.45;;;1.60;;
69779;SDS011;57052;55.602;38.096;2023-07-30T13:17:25;4.53;;;1.83;;
69779;SDS011;57052;55.602;38.096;2023-07-30T13:19:51;2.92;;;1.73;;
69779;SDS011;57052;55.602;38.096;2023-07-30T13:22:17;2.55;;;1.52;;
69779;SDS011;57052;55.602;38.096;2023-07-30T13:24:43;3.42;;;1.77;;
69779;SDS011;57052;55.602;38.096;2023-07-30T13:27:08;8.10;;;2.55;;
69779;SDS011;57052;55.602;38.096;2023-07-30T13:29:34;4.00;;;1.67;;
69779;SDS011;57052;55.602;38.096;2023-07-30T13:32:00;2.53;;;1.70;;
69779;SDS011;57052;55.602;38.096;2023-07-30T13:34:26;3.83;;;1.77;;
69779;SDS011;57052;55.602;38.096;2023-07-30T13:36:54;7.65;;;1.73;;
69779;SDS011;57052;55.602;38.096;2023-07-30T13:39:20;4.07;;;1.63;;
69779;SDS011;57052;55.602;38.096;2023-07-30T13:41:46;3.10;;;1.65;;
69779;SDS011;57052;55.602;38.096;2023-07-30T13:44:11;4.68;;;1.60;;
69779;SDS011;57052;55.602;38.096;2023-07-30T13:46:37;3.10;;;1.60;;
69779;SDS011;57052;55.602;38.096;2023-07-30T13:49:05;3.30;;;1.67;;
69779;SDS011;57052;55.602;38.096;2023-07-30T13:51:31;5.20;;;1.95;;
69779;SDS011;57052;55.602;38.096;2023-07-30T13:53:58;3.40;;;1.58;;
69779;SDS011;57052;55.602;38.096;2023-07-30T13:56:25;3.72;;;1.65;;
69779;SDS011;57052;55.602;38.096;2023-07-30T13:58:51;3.42;;;1.60;;
69779;SDS011;57052;55.602;38.096;2023-07-30T14:01:17;2.65;;;1.73;;
69779;SDS011;57052;55.602;38.096;2023-07-30T14:03:43;4.68;;;2.10;;
69779;SDS011;57052;55.602;38.096;2023-07-30T14:06:09;1.92;;;1.52;;
69779;SDS011;57052;55.602;38.096;2023-07-30T14:08:35;3.30;;;1.60;;
69779;SDS011;57052;55.602;38.096;2023-07-30T14:11:00;3.00;;;1.85;;
69779;SDS011;57052;55.602;38.096;2023-07-30T14:13:26;6.22;;;1.60;;
69779;SDS011;57052;55.602;38.096;2023-07-30T14:15:52;2.92;;;2.05;;
69779;SDS011;57052;55.602;38.096;2023-07-30T14:18:18;4.10;;;1.80;;
69779;SDS011;57052;55.602;38.096;2023-07-30T14:20:44;3.03;;;1.92;;
69779;SDS011;57052;55.602;38.096;2023-07-30T14:23:09;3.30;;;1.90;;
69779;SDS011;57052;55.602;38.096;2023-07-30T14:25:37;4.45;;;1.80;;
69779;SDS011;57052;55.602;38.096;2023-07-30T14:28:03;4.13;;;1.80;;
69779;SDS011;57052;55.602;38.096;2023-07-30T14:30:29;4.50;;;1.90;;
69779;SDS011;57052;55.602;38.096;2023-07-30T14:32:55;3.30;;;1.80;;
69779;SDS011;57052;55.602;38.096;2023-07-30T14:35:21;3.10;;;1.80;;
69779;SDS011;57052;55.602;38.096;2023-07-30T14:37:46;3.60;;;2.25;;
69779;SDS011;57052;55.602;38.096;2023-07-30T14:40:12;3.30;;;1.90;;
69779;SDS011;57052;55.602;38.096;2023-07-30T14:42:38;4.00;;;1.65;;
69779;SDS011;57052;55.602;38.096;2023-07-30T14:45:05;4.03;;;1.85;;
69779;SDS011;57052;55.602;38.096;2023-07-30T14:47:31;4.18;;;1.80;;
69779;SDS011;57052;55.602;38.096;2023-07-30T14:49:58;3.17;;;1.83;;
69779;SDS011;57052;55.602;38.096;2023-07-30T14:52:24;4.13;;;1.90;;